sensor_id;sensor_type;location;lat;lon;timestamp;temperature;humidity
7704;DHT22;3894;49.700;10.770;2022-10-16T00:01:27;15.30;99.90
7704;DHT22;3894;49.700;10.770;2022-10-16T00:03:53;15.30;99.90
7704;DHT22;3894;49.700;10.770;2022-10-16T00:06:21;15.30;99.90
7704;DHT22;3894;49.700;10.770;2022-10-16T00:08:48;15.30;99.90
7704;DHT22;3894;49.700;10.770;2022-10-16T00:11:17;15.20;99.90
7704;DHT22;3894;49.700;10.770;2022-10-16T00:13:45;15.20;99.90
7704;DHT22;3894;49.700;10.770;2022-10-16T00:16:13;15.20;99.90
7704;DHT22;3894;49.700;10.770;2022-10-16T00:18:39;15.20;99.90
7704;DHT22;3894;49.700;10.770;2022-10-16T00:21:10;15.20;99.90
7704;DHT22;3894;49.700;10.770;2022-10-16T00:23:37;15.20;99.90
7704;DHT22;3894;49.700;10.770;2022-10-16T00:26:05;15.10;99.90
7704;DHT22;3894;49.700;10.770;2022-10-16T00:28:32;15.10;99.90
7704;DHT22;3894;49.700;10.770;2022-10-16T00:30:58;15.10;99.90
7704;DHT22;3894;49.700;10.770;2022-10-16T00:33:24;15.10;99.90
7704;DHT22;3894;49.700;10.770;2022-10-16T00:35:50;15.00;99.90
7704;DHT22;3894;49.700;10.770;2022-10-16T00:38:15;15.00;99.90
7704;DHT22;3894;49.700;10.770;2022-10-16T00:40:41;15.00;99.90
7704;DHT22;3894;49.700;10.770;2022-10-16T00:43:32;15.00;99.90
7704;DHT22;3894;49.700;10.770;2022-10-16T00:45:58;15.00;99.90
7704;DHT22;3894;49.700;10.770;2022-10-16T00:48:24;15.00;99.90
7704;DHT22;3894;49.700;10.770;2022-10-16T00:50:50;15.00;99.90
7704;DHT22;3894;49.700;10.770;2022-10-16T00:53:16;14.90;99.90
7704;DHT22;3894;49.700;10.770;2022-10-16T00:55:42;14.90;99.90
7704;DHT22;3894;49.700;10.770;2022-10-16T00:58:08;14.90;99.90
7704;DHT22;3894;49.700;10.770;2022-10-16T01:00:34;14.90;99.90
7704;DHT22;3894;49.700;10.770;2022-10-16T01:03:01;14.90;99.90
7704;DHT22;3894;49.700;10.770;2022-10-16T01:05:39;15.00;99.90
7704;DHT22;3894;49.700;10.770;2022-10-16T01:17:47;15.00;99.90
7704;DHT22;3894;49.700;10.770;2022-10-16T01:23:10;15.00;99.90
7704;DHT22;3894;49.700;10.770;2022-10-16T01:28:23;15.00;99.90
7704;DHT22;3894;49.700;10.770;2022-10-16T01:30:50;14.90;99.90
7704;DHT22;3894;49.700;10.770;2022-10-16T01:33:24;14.90;99.90
7704;DHT22;3894;49.700;10.770;2022-10-16T01:35:58;14.90;99.90
7704;DHT22;3894;49.700;10.770;2022-10-16T01:40:53;14.70;99.90
7704;DHT22;3894;49.700;10.770;2022-10-16T01:43:26;14.70;99.90
7704;DHT22;3894;49.700;10.770;2022-10-16T01:45:54;14.70;99.90
7704;DHT22;3894;49.700;10.770;2022-10-16T01:48:21;14.70;99.90
7704;DHT22;3894;49.700;10.770;2022-10-16T01:50:55;14.80;99.90
7704;DHT22;3894;49.700;10.770;2022-10-16T01:53:22;14.80;99.90
7704;DHT22;3894;49.700;10.770;2022-10-16T01:55:49;14.80;99.90
7704;DHT22;3894;49.700;10.770;2022-10-16T01:58:17;14.80;99.90
7704;DHT22;3894;49.700;10.770;2022-10-16T02:00:45;14.80;99.90
7704;DHT22;3894;49.700;10.770;2022-10-16T02:03:15;14.80;99.90
7704;DHT22;3894;49.700;10.770;2022-10-16T02:05:54;14.90;99.90
7704;DHT22;3894;49.700;10.770;2022-10-16T02:08:23;14.90;99.90
7704;DHT22;3894;49.700;10.770;2022-10-16T02:10:49;14.90;99.90
7704;DHT22;3894;49.700;10.770;2022-10-16T02:13:29;14.90;99.90
7704;DHT22;3894;49.700;10.770;2022-10-16T02:15:55;14.90;99.90
7704;DHT22;3894;49.700;10.770;2022-10-16T02:18:21;14.90;99.90
7704;DHT22;3894;49.700;10.770;2022-10-16T02:21:04;14.90;99.90
7704;DHT22;3894;49.700;10.770;2022-10-16T02:23:45;14.90;99.90
7704;DHT22;3894;49.700;10.770;2022-10-16T02:26:19;14.80;99.90
7704;DHT22;3894;49.700;10.770;2022-10-16T02:28:54;14.80;99.90
7704;DHT22;3894;49.700;10.770;2022-10-16T02:31:25;14.80;99.90
7704;DHT22;3894;49.700;10.770;2022-10-16T02:33:55;14.80;99.90
7704;DHT22;3894;49.700;10.770;2022-10-16T02:36:21;14.80;99.90
7704;DHT22;3894;49.700;10.770;2022-10-16T02:38:47;14.90;99.90
7704;DHT22;3894;49.700;10.770;2022-10-16T02:41:14;14.90;99.90
7704;DHT22;3894;49.700;10.770;2022-10-16T02:43:39;14.90;99.90
7704;DHT22;3894;49.700;10.770;2022-10-16T02:46:05;15.00;99.90
7704;DHT22;3894;49.700;10.770;2022-10-16T02:48:30;15.00;99.90
7704;DHT22;3894;49.700;10.770;2022-10-16T02:50:56;15.00;99.90
7704;DHT22;3894;49.700;10.770;2022-10-16T02:53:22;15.00;99.90
7704;DHT22;3894;49.700;10.770;2022-10-16T02:55:48;14.90;99.90
7704;DHT22;3894;49.700;10.770;2022-10-16T02:58:13;14.90;99.90
7704;DHT22;3894;49.700;10.770;2022-10-16T03:00:39;14.90;99.90
7704;DHT22;3894;49.700;10.770;2022-10-16T03:03:04;14.90;99.90
7704;DHT22;3894;49.700;10.770;2022-10-16T03:05:30;14.90;99.90
7704;DHT22;3894;49.700;10.770;2022-10-16T03:07:55;14.90;99.90
7704;DHT22;3894;49.700;10.770;2022-10-16T03:10:21;14.90;99.90
7704;DHT22;3894;49.700;10.770;2022-10-16T03:12:47;14.90;99.90
7704;DHT22;3894;49.700;10.770;2022-10-16T03:15:12;14.90;99.90
7704;DHT22;3894;49.700;10.770;2022-10-16T03:17:38;14.90;99.90
7704;DHT22;3894;49.700;10.770;2022-10-16T03:20:03;14.90;99.90
7704;DHT22;3894;49.700;10.770;2022-10-16T03:22:29;14.90;99.90
7704;DHT22;3894;49.700;10.770;2022-10-16T03:24:55;14.90;99.90
7704;DHT22;3894;49.700;10.770;2022-10-16T03:27:20;14.90;99.90
7704;DHT22;3894;49.700;10.770;2022-10-16T03:29:46;14.90;99.90
7704;DHT22;3894;49.700;10.770;2022-10-16T03:32:11;14.90;99.90
7704;DHT22;3894;49.700;10.770;2022-10-16T03:34:37;14.90;99.90
7704;DHT22;3894;49.700;10.770;2022-10-16T03:37:03;14.90;99.90
7704;DHT22;3894;49.700;10.770;2022-10-16T03:39:28;14.90;99.90
7704;DHT22;3894;49.700;10.770;2022-10-16T03:41:54;14.90;99.90
7704;DHT22;3894;49.700;10.770;2022-10-16T03:44:19;14.90;99.90
7704;DHT22;3894;49.700;10.770;2022-10-16T03:46:45;14.90;99.90
7704;DHT22;3894;49.700;10.770;2022-10-16T03:49:10;14.90;99.90
7704;DHT22;3894;49.700;10.770;2022-10-16T03:51:36;14.80;99.90
7704;DHT22;3894;49.700;10.770;2022-10-16T03:54:02;14.90;99.90
7704;DHT22;3894;49.700;10.770;2022-10-16T03:56:28;14.90;99.90
7704;DHT22;3894;49.700;10.770;2022-10-16T03:58:53;14.90;99.90
7704;DHT22;3894;49.700;10.770;2022-10-16T04:01:19;14.90;99.90
7704;DHT22;3894;49.700;10.770;2022-10-16T04:03:44;14.90;99.90
7704;DHT22;3894;49.700;10.770;2022-10-16T04:06:10;14.90;99.90
7704;DHT22;3894;49.700;10.770;2022-10-16T04:08:35;14.90;99.90
7704;DHT22;3894;49.700;10.770;2022-10-16T04:11:02;14.90;99.90
7704;DHT22;3894;49.700;10.770;2022-10-16T04:13:28;14.90;99.90
7704;DHT22;3894;49.700;10.770;2022-10-16T04:15:54;14.90;99.90
7704;DHT22;3894;49.700;10.770;2022-10-16T04:18:20;14.90;99.90
7704;DHT22;3894;49.700;10.770;2022-10-16T04:20:45;14.90;99.90
7704;DHT22;3894;49.700;10.770;2022-10-16T04:23:11;14.90;99.90
7704;DHT22;3894;49.700;10.770;2022-10-16T04:25:37;14.90;99.90
7704;DHT22;3894;49.700;10.770;2022-10-16T04:28:02;14.80;99.90
7704;DHT22;3894;49.700;10.770;2022-10-16T04:30:28;14.90;99.90
7704;DHT22;3894;49.700;10.770;2022-10-16T04:32:54;14.90;99.90
7704;DHT22;3894;49.700;10.770;2022-10-16T04:35:20;14.90;99.90
7704;DHT22;3894;49.700;10.770;2022-10-16T04:37:46;14.80;99.90
7704;DHT22;3894;49.700;10.770;2022-10-16T04:40:12;14.90;99.90
7704;DHT22;3894;49.700;10.770;2022-10-16T04:42:37;14.80;99.90
7704;DHT22;3894;49.700;10.770;2022-10-16T04:45:04;14.80;99.90
7704;DHT22;3894;49.700;10.770;2022-10-16T04:47:30;14.80;99.90
7704;DHT22;3894;49.700;10.770;2022-10-16T04:49:56;14.80;99.90
7704;DHT22;3894;49.700;10.770;2022-10-16T04:52:22;14.90;99.90
7704;DHT22;3894;49.700;10.770;2022-10-16T04:54:50;14.80;99.90
7704;DHT22;3894;49.700;10.770;2022-10-16T04:57:16;14.90;99.90
7704;DHT22;3894;49.700;10.770;2022-10-16T04:59:41;14.80;99.90
7704;DHT22;3894;49.700;10.770;2022-10-16T05:02:07;14.80;99.90
7704;DHT22;3894;49.700;10.770;2022-10-16T05:04:32;14.80;99.90
7704;DHT22;3894;49.700;10.770;2022-10-16T05:06:58;14.80;99.90
7704;DHT22;3894;49.700;10.770;2022-10-16T05:09:23;14.80;99.90
7704;DHT22;3894;49.700;10.770;2022-10-16T05:11:49;14.80;99.90
7704;DHT22;3894;49.700;10.770;2022-10-16T05:14:15;14.80;99.90
7704;DHT22;3894;49.700;10.770;2022-10-16T05:16:40;14.70;99.90
7704;DHT22;3894;49.700;10.770;2022-10-16T05:19:06;14.70;99.90
7704;DHT22;3894;49.700;10.770;2022-10-16T05:21:31;14.70;99.90
7704;DHT22;3894;49.700;10.770;2022-10-16T05:23:57;14.70;99.90
7704;DHT22;3894;49.700;10.770;2022-10-16T05:26:22;14.70;99.90
7704;DHT22;3894;49.700;10.770;2022-10-16T05:28:49;14.70;99.90
7704;DHT22;3894;49.700;10.770;2022-10-16T05:31:15;14.70;99.90
7704;DHT22;3894;49.700;10.770;2022-10-16T05:33:40;14.70;99.90
7704;DHT22;3894;49.700;10.770;2022-10-16T05:36:08;14.60;99.90
7704;DHT22;3894;49.700;10.770;2022-10-16T05:38:35;14.60;99.90
7704;DHT22;3894;49.700;10.770;2022-10-16T05:41:01;14.60;99.90
7704;DHT22;3894;49.700;10.770;2022-10-16T05:43:30;14.60;99.90
7704;DHT22;3894;49.700;10.770;2022-10-16T05:45:58;14.60;99.90
7704;DHT22;3894;49.700;10.770;2022-10-16T05:48:24;14.60;99.90
7704;DHT22;3894;49.700;10.770;2022-10-16T05:51:06;14.60;99.90
7704;DHT22;3894;49.700;10.770;2022-10-16T05:53:34;14.60;99.90
7704;DHT22;3894;49.700;10.770;2022-10-16T05:56:00;14.70;99.90
7704;DHT22;3894;49.700;10.770;2022-10-16T05:58:32;14.60;99.90
7704;DHT22;3894;49.700;10.770;2022-10-16T06:01:00;14.60;99.90
7704;DHT22;3894;49.700;10.770;2022-10-16T06:03:26;14.60;99.90
7704;DHT22;3894;49.700;10.770;2022-10-16T06:05:52;14.60;99.90
7704;DHT22;3894;49.700;10.770;2022-10-16T06:08:19;14.60;99.90
7704;DHT22;3894;49.700;10.770;2022-10-16T06:10:45;14.60;99.90
7704;DHT22;3894;49.700;10.770;2022-10-16T06:13:11;14.70;99.90
7704;DHT22;3894;49.700;10.770;2022-10-16T06:15:38;14.70;99.90
7704;DHT22;3894;49.700;10.770;2022-10-16T06:18:05;14.70;99.90
7704;DHT22;3894;49.700;10.770;2022-10-16T06:20:30;14.70;99.90
7704;DHT22;3894;49.700;10.770;2022-10-16T06:22:56;14.70;99.90
7704;DHT22;3894;49.700;10.770;2022-10-16T06:25:22;14.70;99.90
7704;DHT22;3894;49.700;10.770;2022-10-16T06:27:47;14.70;99.90
7704;DHT22;3894;49.700;10.770;2022-10-16T06:30:13;14.70;99.90
7704;DHT22;3894;49.700;10.770;2022-10-16T06:32:39;14.70;99.90
7704;DHT22;3894;49.700;10.770;2022-10-16T06:35:04;14.70;99.90
7704;DHT22;3894;49.700;10.770;2022-10-16T06:37:30;14.70;99.90
7704;DHT22;3894;49.700;10.770;2022-10-16T06:39:55;14.70;99.90
7704;DHT22;3894;49.700;10.770;2022-10-16T06:42:21;14.70;99.90
7704;DHT22;3894;49.700;10.770;2022-10-16T06:44:47;14.70;99.90
7704;DHT22;3894;49.700;10.770;2022-10-16T06:47:12;14.70;99.90
7704;DHT22;3894;49.700;10.770;2022-10-16T06:49:38;14.70;99.90
7704;DHT22;3894;49.700;10.770;2022-10-16T06:52:03;14.70;99.90
7704;DHT22;3894;49.700;10.770;2022-10-16T06:54:29;14.80;99.90
7704;DHT22;3894;49.700;10.770;2022-10-16T06:56:55;14.80;99.90
7704;DHT22;3894;49.700;10.770;2022-10-16T06:59:23;14.80;99.90
7704;DHT22;3894;49.700;10.770;2022-10-16T07:01:49;14.80;99.90
7704;DHT22;3894;49.700;10.770;2022-10-16T07:04:14;14.90;99.90
7704;DHT22;3894;49.700;10.770;2022-10-16T07:06:40;14.90;99.90
7704;DHT22;3894;49.700;10.770;2022-10-16T07:09:08;14.90;99.90
7704;DHT22;3894;49.700;10.770;2022-10-16T07:11:35;15.00;99.90
7704;DHT22;3894;49.700;10.770;2022-10-16T07:14:01;15.00;99.90
7704;DHT22;3894;49.700;10.770;2022-10-16T07:16:29;15.10;99.90
7704;DHT22;3894;49.700;10.770;2022-10-16T07:18:55;15.10;99.90
7704;DHT22;3894;49.700;10.770;2022-10-16T07:21:25;15.20;99.90
7704;DHT22;3894;49.700;10.770;2022-10-16T07:23:56;15.20;99.90
7704;DHT22;3894;49.700;10.770;2022-10-16T07:26:23;15.20;99.90
7704;DHT22;3894;49.700;10.770;2022-10-16T07:28:49;15.20;99.90
7704;DHT22;3894;49.700;10.770;2022-10-16T07:31:16;15.20;99.90
7704;DHT22;3894;49.700;10.770;2022-10-16T07:33:43;15.20;99.90
7704;DHT22;3894;49.700;10.770;2022-10-16T07:36:10;15.30;99.90
7704;DHT22;3894;49.700;10.770;2022-10-16T07:38:36;15.30;99.90
7704;DHT22;3894;49.700;10.770;2022-10-16T07:41:05;15.40;99.90
7704;DHT22;3894;49.700;10.770;2022-10-16T07:43:32;15.50;99.90
7704;DHT22;3894;49.700;10.770;2022-10-16T07:45:57;15.70;99.90
7704;DHT22;3894;49.700;10.770;2022-10-16T07:48:26;15.80;99.90
7704;DHT22;3894;49.700;10.770;2022-10-16T07:50:51;16.00;99.90
7704;DHT22;3894;49.700;10.770;2022-10-16T07:53:17;16.00;99.90
7704;DHT22;3894;49.700;10.770;2022-10-16T07:55:42;16.00;99.90
7704;DHT22;3894;49.700;10.770;2022-10-16T07:58:08;15.90;99.90
7704;DHT22;3894;49.700;10.770;2022-10-16T08:00:35;15.90;99.90
7704;DHT22;3894;49.700;10.770;2022-10-16T08:03:01;15.90;99.90
7704;DHT22;3894;49.700;10.770;2022-10-16T08:05:31;16.00;99.90
7704;DHT22;3894;49.700;10.770;2022-10-16T08:07:57;16.00;99.90
7704;DHT22;3894;49.700;10.770;2022-10-16T08:10:26;16.00;99.90
7704;DHT22;3894;49.700;10.770;2022-10-16T08:12:52;16.00;99.90
7704;DHT22;3894;49.700;10.770;2022-10-16T08:15:18;16.10;99.90
7704;DHT22;3894;49.700;10.770;2022-10-16T08:17:44;16.10;99.90
7704;DHT22;3894;49.700;10.770;2022-10-16T08:20:10;16.10;99.90
7704;DHT22;3894;49.700;10.770;2022-10-16T08:22:36;16.10;99.90
7704;DHT22;3894;49.700;10.770;2022-10-16T08:25:01;16.20;99.90
7704;DHT22;3894;49.700;10.770;2022-10-16T08:27:33;16.30;99.90
7704;DHT22;3894;49.700;10.770;2022-10-16T08:29:59;16.40;99.90
7704;DHT22;3894;49.700;10.770;2022-10-16T08:32:24;16.40;99.90
7704;DHT22;3894;49.700;10.770;2022-10-16T08:34:50;16.40;99.90
7704;DHT22;3894;49.700;10.770;2022-10-16T08:37:15;16.40;99.90
7704;DHT22;3894;49.700;10.770;2022-10-16T08:39:41;16.40;99.90
7704;DHT22;3894;49.700;10.770;2022-10-16T08:42:19;16.40;99.90
7704;DHT22;3894;49.700;10.770;2022-10-16T08:45:58;16.40;99.90
7704;DHT22;3894;49.700;10.770;2022-10-16T08:48:16;16.40;99.90
7704;DHT22;3894;49.700;10.770;2022-10-16T08:50:43;16.30;99.90
7704;DHT22;3894;49.700;10.770;2022-10-16T08:53:16;16.40;99.90
7704;DHT22;3894;49.700;10.770;2022-10-16T08:58:22;16.50;99.90
7704;DHT22;3894;49.700;10.770;2022-10-16T09:00:53;16.60;99.90
7704;DHT22;3894;49.700;10.770;2022-10-16T09:06:11;17.00;99.90
7704;DHT22;3894;49.700;10.770;2022-10-16T09:11:37;17.20;99.90
7704;DHT22;3894;49.700;10.770;2022-10-16T09:16:44;17.20;99.90
7704;DHT22;3894;49.700;10.770;2022-10-16T09:19:27;17.10;99.90
7704;DHT22;3894;49.700;10.770;2022-10-16T09:21:57;17.00;99.90
7704;DHT22;3894;49.700;10.770;2022-10-16T09:24:25;17.00;99.90
7704;DHT22;3894;49.700;10.770;2022-10-16T09:26:51;16.90;99.90
7704;DHT22;3894;49.700;10.770;2022-10-16T09:29:19;17.00;99.90
7704;DHT22;3894;49.700;10.770;2022-10-16T09:31:51;17.00;99.90
7704;DHT22;3894;49.700;10.770;2022-10-16T09:34:20;17.00;99.90
7704;DHT22;3894;49.700;10.770;2022-10-16T09:36:47;17.00;99.90
7704;DHT22;3894;49.700;10.770;2022-10-16T09:39:13;17.00;99.90
7704;DHT22;3894;49.700;10.770;2022-10-16T09:41:41;17.00;99.90
7704;DHT22;3894;49.700;10.770;2022-10-16T09:46:45;17.20;99.90
7704;DHT22;3894;49.700;10.770;2022-10-16T09:49:24;17.40;99.90
7704;DHT22;3894;49.700;10.770;2022-10-16T09:51:51;17.50;99.90
7704;DHT22;3894;49.700;10.770;2022-10-16T09:54:27;17.60;99.90
7704;DHT22;3894;49.700;10.770;2022-10-16T09:57:04;17.70;99.90
7704;DHT22;3894;49.700;10.770;2022-10-16T09:59:31;17.70;99.90
7704;DHT22;3894;49.700;10.770;2022-10-16T10:02:01;17.70;99.90
7704;DHT22;3894;49.700;10.770;2022-10-16T10:04:38;17.70;99.90
7704;DHT22;3894;49.700;10.770;2022-10-16T10:07:05;17.70;99.90
7704;DHT22;3894;49.700;10.770;2022-10-16T10:09:39;17.70;99.90
7704;DHT22;3894;49.700;10.770;2022-10-16T10:12:06;17.80;99.90
7704;DHT22;3894;49.700;10.770;2022-10-16T10:14:48;17.80;99.90
7704;DHT22;3894;49.700;10.770;2022-10-16T10:17:23;17.90;99.90
7704;DHT22;3894;49.700;10.770;2022-10-16T10:19:50;17.90;99.90
7704;DHT22;3894;49.700;10.770;2022-10-16T10:30:34;17.90;99.90
7704;DHT22;3894;49.700;10.770;2022-10-16T10:33:07;17.80;99.90
7704;DHT22;3894;49.700;10.770;2022-10-16T10:38:52;17.80;99.90
7704;DHT22;3894;49.700;10.770;2022-10-16T10:44:30;17.90;99.90
7704;DHT22;3894;49.700;10.770;2022-10-16T11:00:49;18.40;99.90
7704;DHT22;3894;49.700;10.770;2022-10-16T11:06:30;18.50;99.90
7704;DHT22;3894;49.700;10.770;2022-10-16T11:09:27;18.60;99.90
7704;DHT22;3894;49.700;10.770;2022-10-16T11:12:15;18.90;99.90
7704;DHT22;3894;49.700;10.770;2022-10-16T11:15:03;19.50;99.90
7704;DHT22;3894;49.700;10.770;2022-10-16T11:17:32;19.70;99.90
7704;DHT22;3894;49.700;10.770;2022-10-16T11:22:35;20.30;99.90
7704;DHT22;3894;49.700;10.770;2022-10-16T11:25:23;20.10;99.90
7704;DHT22;3894;49.700;10.770;2022-10-16T11:28:19;19.80;99.90
7704;DHT22;3894;49.700;10.770;2022-10-16T11:31:15;19.70;99.90
7704;DHT22;3894;49.700;10.770;2022-10-16T11:33:51;19.60;99.90
7704;DHT22;3894;49.700;10.770;2022-10-16T11:36:23;19.70;99.90
7704;DHT22;3894;49.700;10.770;2022-10-16T11:41:39;19.20;99.90
7704;DHT22;3894;49.700;10.770;2022-10-16T11:49:42;18.60;99.90
7704;DHT22;3894;49.700;10.770;2022-10-16T11:52:39;18.50;99.90
7704;DHT22;3894;49.700;10.770;2022-10-16T11:55:16;18.40;99.90
7704;DHT22;3894;49.700;10.770;2022-10-16T11:57:57;18.40;99.90
7704;DHT22;3894;49.700;10.770;2022-10-16T12:00:44;18.50;99.90
7704;DHT22;3894;49.700;10.770;2022-10-16T12:03:20;18.50;99.90
7704;DHT22;3894;49.700;10.770;2022-10-16T12:08:52;19.00;99.90
7704;DHT22;3894;49.700;10.770;2022-10-16T12:14:03;19.60;99.90
7704;DHT22;3894;49.700;10.770;2022-10-16T12:16:29;19.80;99.90
7704;DHT22;3894;49.700;10.770;2022-10-16T12:19:15;20.00;99.90
7704;DHT22;3894;49.700;10.770;2022-10-16T12:21:43;19.90;99.90
7704;DHT22;3894;49.700;10.770;2022-10-16T12:26:53;20.30;99.90
7704;DHT22;3894;49.700;10.770;2022-10-16T12:29:34;20.40;99.90
7704;DHT22;3894;49.700;10.770;2022-10-16T12:32:00;20.50;99.90
7704;DHT22;3894;49.700;10.770;2022-10-16T12:34:42;20.60;99.90
7704;DHT22;3894;49.700;10.770;2022-10-16T12:37:22;20.70;99.90
7704;DHT22;3894;49.700;10.770;2022-10-16T12:39:49;20.70;99.90
7704;DHT22;3894;49.700;10.770;2022-10-16T12:44:46;20.80;99.90
7704;DHT22;3894;49.700;10.770;2022-10-16T12:47:38;20.90;99.90
7704;DHT22;3894;49.700;10.770;2022-10-16T12:50:34;21.10;99.90
7704;DHT22;3894;49.700;10.770;2022-10-16T12:53:01;21.10;99.90
7704;DHT22;3894;49.700;10.770;2022-10-16T12:55:42;21.00;99.90
7704;DHT22;3894;49.700;10.770;2022-10-16T12:58:12;20.90;99.90
7704;DHT22;3894;49.700;10.770;2022-10-16T13:00:56;21.00;99.90
7704;DHT22;3894;49.700;10.770;2022-10-16T13:06:11;20.90;99.90
7704;DHT22;3894;49.700;10.770;2022-10-16T13:25:18;21.30;99.90
7704;DHT22;3894;49.700;10.770;2022-10-16T13:27:55;21.20;99.90
7704;DHT22;3894;49.700;10.770;2022-10-16T13:30:34;21.10;99.90
7704;DHT22;3894;49.700;10.770;2022-10-16T13:33:06;21.00;99.90
7704;DHT22;3894;49.700;10.770;2022-10-16T13:35:34;20.90;99.90
7704;DHT22;3894;49.700;10.770;2022-10-16T13:38:13;20.80;99.90
7704;DHT22;3894;49.700;10.770;2022-10-16T13:40:50;20.60;99.90
7704;DHT22;3894;49.700;10.770;2022-10-16T13:43:18;20.50;99.90
7704;DHT22;3894;49.700;10.770;2022-10-16T13:45:59;20.40;99.90
7704;DHT22;3894;49.700;10.770;2022-10-16T13:48:25;20.40;99.90
7704;DHT22;3894;49.700;10.770;2022-10-16T13:51:02;20.50;99.90
7704;DHT22;3894;49.700;10.770;2022-10-16T13:53:34;20.50;99.90
7704;DHT22;3894;49.700;10.770;2022-10-16T13:56:01;20.40;99.90
7704;DHT22;3894;49.700;10.770;2022-10-16T13:58:27;20.40;99.90
7704;DHT22;3894;49.700;10.770;2022-10-16T14:00:56;20.40;99.90
7704;DHT22;3894;49.700;10.770;2022-10-16T14:03:22;20.40;99.90
7704;DHT22;3894;49.700;10.770;2022-10-16T14:05:57;20.40;99.90
7704;DHT22;3894;49.700;10.770;2022-10-16T14:08:25;20.50;99.90
7704;DHT22;3894;49.700;10.770;2022-10-16T14:10:54;20.50;99.90
7704;DHT22;3894;49.700;10.770;2022-10-16T14:13:32;20.50;99.90
7704;DHT22;3894;49.700;10.770;2022-10-16T14:16:04;20.40;99.90
7704;DHT22;3894;49.700;10.770;2022-10-16T14:18:31;20.40;99.90
7704;DHT22;3894;49.700;10.770;2022-10-16T14:21:06;20.40;99.90
7704;DHT22;3894;49.700;10.770;2022-10-16T14:23:39;20.40;99.90
7704;DHT22;3894;49.700;10.770;2022-10-16T14:28:39;20.30;99.90
7704;DHT22;3894;49.700;10.770;2022-10-16T14:33:53;20.10;99.90
7704;DHT22;3894;49.700;10.770;2022-10-16T14:36:18;20.00;99.90
7704;DHT22;3894;49.700;10.770;2022-10-16T14:39:06;19.90;99.90
7704;DHT22;3894;49.700;10.770;2022-10-16T14:41:48;19.80;99.90
7704;DHT22;3894;49.700;10.770;2022-10-16T14:44:14;19.80;99.90
7704;DHT22;3894;49.700;10.770;2022-10-16T14:46:43;19.80;99.90
7704;DHT22;3894;49.700;10.770;2022-10-16T14:51:35;19.90;99.90
7704;DHT22;3894;49.700;10.770;2022-10-16T14:54:02;19.90;99.90
7704;DHT22;3894;49.700;10.770;2022-10-16T14:56:30;19.90;99.90
7704;DHT22;3894;49.700;10.770;2022-10-16T14:58:58;19.90;99.90
7704;DHT22;3894;49.700;10.770;2022-10-16T15:01:23;19.80;99.90
7704;DHT22;3894;49.700;10.770;2022-10-16T15:03:49;19.80;99.90
7704;DHT22;3894;49.700;10.770;2022-10-16T15:06:17;19.90;99.90
7704;DHT22;3894;49.700;10.770;2022-10-16T15:08:43;19.90;99.90
7704;DHT22;3894;49.700;10.770;2022-10-16T15:11:18;19.90;99.90
7704;DHT22;3894;49.700;10.770;2022-10-16T15:13:45;19.80;99.90
7704;DHT22;3894;49.700;10.770;2022-10-16T15:16:13;19.80;99.90
7704;DHT22;3894;49.700;10.770;2022-10-16T15:18:39;19.80;99.90
7704;DHT22;3894;49.700;10.770;2022-10-16T15:21:05;19.80;99.90
7704;DHT22;3894;49.700;10.770;2022-10-16T15:23:30;19.80;99.90
7704;DHT22;3894;49.700;10.770;2022-10-16T15:25:56;19.80;99.90
7704;DHT22;3894;49.700;10.770;2022-10-16T15:28:23;19.80;99.90
7704;DHT22;3894;49.700;10.770;2022-10-16T15:30:51;19.70;99.90
7704;DHT22;3894;49.700;10.770;2022-10-16T15:33:21;19.70;99.90
7704;DHT22;3894;49.700;10.770;2022-10-16T15:35:49;19.70;99.90
7704;DHT22;3894;49.700;10.770;2022-10-16T15:38:16;19.60;99.90
7704;DHT22;3894;49.700;10.770;2022-10-16T15:40:41;19.60;99.90
7704;DHT22;3894;49.700;10.770;2022-10-16T15:43:07;19.60;99.90
7704;DHT22;3894;49.700;10.770;2022-10-16T15:45:34;19.50;99.90
7704;DHT22;3894;49.700;10.770;2022-10-16T15:47:59;19.50;99.90
7704;DHT22;3894;49.700;10.770;2022-10-16T15:50:26;19.50;99.90
7704;DHT22;3894;49.700;10.770;2022-10-16T15:52:52;19.50;99.90
7704;DHT22;3894;49.700;10.770;2022-10-16T15:55:18;19.40;99.90
7704;DHT22;3894;49.700;10.770;2022-10-16T15:57:44;19.30;99.90
7704;DHT22;3894;49.700;10.770;2022-10-16T16:00:13;19.20;99.90
7704;DHT22;3894;49.700;10.770;2022-10-16T16:02:41;19.20;99.90
7704;DHT22;3894;49.700;10.770;2022-10-16T16:05:07;19.10;99.90
7704;DHT22;3894;49.700;10.770;2022-10-16T16:07:38;19.10;99.90
7704;DHT22;3894;49.700;10.770;2022-10-16T16:10:06;19.00;99.90
7704;DHT22;3894;49.700;10.770;2022-10-16T16:12:32;19.00;99.90
7704;DHT22;3894;49.700;10.770;2022-10-16T16:14:58;18.90;99.90
7704;DHT22;3894;49.700;10.770;2022-10-16T16:17:24;18.90;99.90
7704;DHT22;3894;49.700;10.770;2022-10-16T16:19:50;18.80;99.90
7704;DHT22;3894;49.700;10.770;2022-10-16T16:22:16;18.80;99.90
7704;DHT22;3894;49.700;10.770;2022-10-16T16:24:41;18.80;99.90
7704;DHT22;3894;49.700;10.770;2022-10-16T16:27:09;18.70;99.90
7704;DHT22;3894;49.700;10.770;2022-10-16T16:29:35;18.70;99.90
7704;DHT22;3894;49.700;10.770;2022-10-16T16:32:01;18.70;99.90
7704;DHT22;3894;49.700;10.770;2022-10-16T16:34:27;18.60;99.90
7704;DHT22;3894;49.700;10.770;2022-10-16T16:36:54;18.60;99.90
7704;DHT22;3894;49.700;10.770;2022-10-16T16:39:20;18.60;99.90
7704;DHT22;3894;49.700;10.770;2022-10-16T16:41:46;18.60;99.90
7704;DHT22;3894;49.700;10.770;2022-10-16T16:44:13;18.50;99.90
7704;DHT22;3894;49.700;10.770;2022-10-16T16:46:39;18.50;99.90
7704;DHT22;3894;49.700;10.770;2022-10-16T16:49:05;18.50;99.90
7704;DHT22;3894;49.700;10.770;2022-10-16T16:51:32;18.50;99.90
7704;DHT22;3894;49.700;10.770;2022-10-16T16:53:58;18.50;99.90
7704;DHT22;3894;49.700;10.770;2022-10-16T16:56:24;18.50;99.90
7704;DHT22;3894;49.700;10.770;2022-10-16T16:58:52;18.50;99.90
7704;DHT22;3894;49.700;10.770;2022-10-16T17:01:19;18.40;99.90
7704;DHT22;3894;49.700;10.770;2022-10-16T17:03:45;18.40;99.90
7704;DHT22;3894;49.700;10.770;2022-10-16T17:06:12;18.40;99.90
7704;DHT22;3894;49.700;10.770;2022-10-16T17:08:38;18.40;99.90
7704;DHT22;3894;49.700;10.770;2022-10-16T17:11:05;18.40;99.90
7704;DHT22;3894;49.700;10.770;2022-10-16T17:13:33;18.30;99.90
7704;DHT22;3894;49.700;10.770;2022-10-16T17:16:01;18.30;99.90
7704;DHT22;3894;49.700;10.770;2022-10-16T17:18:27;18.30;99.90
7704;DHT22;3894;49.700;10.770;2022-10-16T17:20:52;18.30;99.90
7704;DHT22;3894;49.700;10.770;2022-10-16T17:23:18;18.30;99.90
7704;DHT22;3894;49.700;10.770;2022-10-16T17:25:45;18.20;99.90
7704;DHT22;3894;49.700;10.770;2022-10-16T17:28:11;18.20;99.90
7704;DHT22;3894;49.700;10.770;2022-10-16T17:30:38;18.10;99.90
7704;DHT22;3894;49.700;10.770;2022-10-16T17:33:05;18.10;99.90
7704;DHT22;3894;49.700;10.770;2022-10-16T17:35:45;18.10;99.90
7704;DHT22;3894;49.700;10.770;2022-10-16T17:38:12;18.00;99.90
7704;DHT22;3894;49.700;10.770;2022-10-16T17:40:38;18.10;99.90
7704;DHT22;3894;49.700;10.770;2022-10-16T17:43:04;18.10;99.90
7704;DHT22;3894;49.700;10.770;2022-10-16T17:45:30;18.00;99.90
7704;DHT22;3894;49.700;10.770;2022-10-16T17:47:57;18.10;99.90